Sandra Hugh — WDD9019 — position and weather

sailwx.info

Track history (hours):
 
Tides and Currents Weather Stations Pressure Air Temp Water Temp Dewpoint Dewpoint Depression Visibility Wind Speed Wind Dir Waves Ship Positions

Sandra Hugh

Owner: Sortwell Inc., DBA AmNav Maritime Services, Oakland, CA. More information available from US FCC via Universal Licensing System and Coast Guard Vessel Documentation Center.

Last reported at 2015-Jul-31 04:34 UTC. Time now 2015-Jul-31 05:06 UTC.
Position N 37°49' W 122°19'.

Length 24 m; draft 4.9 m.

Type: Tug. MMSI: 367305920.

Date/timePositionNaut miles runAvg speedWind from/ knotsBaromVisibWave heightAir tempDewpointWater temp
2015-Jul-31 04:34N 37°49' W 122°19'0 0.0
2015-Jul-31 03:34N 37°49' W 122°19'0 0.0
2015-Jul-31 02:34N 37°49' W 122°19'0 0.1
2015-Jul-31 01:34N 37°49' W 122°19'0 0.0
2015-Jul-31 00:33N 37°49' W 122°19'0 0.0
2015-Jul-30 23:34N 37°49' W 122°19'0 0.0
2015-Jul-30 22:34N 37°49' W 122°19'0 0.0
2015-Jul-30 21:34N 37°49' W 122°19'0 0.0
2015-Jul-30 20:34N 37°49' W 122°19'0 0.0
2015-Jul-30 19:34N 37°49' W 122°19'2 1.7
2015-Jul-30 18:34N 37°48' W 122°20'0 0.2
2015-Jul-30 17:34N 37°49' W 122°20'0 0.2
2015-Jul-30 16:34N 37°49' W 122°20'0 0.0
2015-Jul-30 15:34N 37°49' W 122°20'0 0.4
2015-Jul-30 14:34N 37°49' W 122°20'0 0.4
2015-Jul-30 13:34N 37°49' W 122°19'3 2.7
2015-Jul-30 12:34N 37°48' W 122°22'3 3.1
2015-Jul-30 11:34N 37°49' W 122°19'0 0.0
2015-Jul-30 10:34N 37°49' W 122°19'0 0.0
2015-Jul-30 09:34N 37°49' W 122°19'0 0.0
2015-Jul-30 08:34N 37°49' W 122°19'0 0.0
2015-Jul-30 07:34N 37°49' W 122°19'0 0.0
2015-Jul-30 06:34N 37°49' W 122°19'0 0.0
2015-Jul-30 05:34N 37°49' W 122°19'0 0.0
2015-Jul-30 04:34N 37°49' W 122°19'0 0.0
2015-Jul-30 03:33N 37°49' W 122°19'0 0.0
2015-Jul-30 02:34N 37°49' W 122°19'0 0.3
2015-Jul-30 01:33N 37°49' W 122°19'0 0.0
2015-Jul-30 00:34N 37°49' W 122°19'1 0.6
2015-Jul-29 23:34N 37°49' W 122°20'1 1.0
2015-Jul-29 22:34N 37°48' W 122°21'2 1.9
2015-Jul-29 21:34N 37°49' W 122°19'0 0.0
2015-Jul-29 20:34N 37°49' W 122°19'0 0.0
2015-Jul-29 19:34N 37°49' W 122°19'0 0.0
2015-Jul-29 18:34N 37°49' W 122°19'0 0.0
2015-Jul-29 17:34N 37°49' W 122°19'0 0.0
2015-Jul-29 16:34N 37°49' W 122°19'0 0.0
2015-Jul-29 15:34N 37°49' W 122°19'1 0.6
2015-Jul-29 14:34N 37°49' W 122°19'0 0.3
2015-Jul-29 13:34N 37°49' W 122°19'1 0.6
2015-Jul-29 12:34N 37°49' W 122°20'1 0.8
2015-Jul-29 11:34N 37°48' W 122°21'0 0.0
2015-Jul-29 10:34N 37°48' W 122°21'2 2.0
2015-Jul-29 09:34N 37°48' W 122°18'0 0.1
2015-Jul-29 08:34N 37°48' W 122°18'2 1.8
2015-Jul-29 07:34N 37°49' W 122°20'0 0.0
2015-Jul-29 06:34N 37°49' W 122°20'0 0.0
2015-Jul-29 05:34N 37°49' W 122°20'0 0.0
2015-Jul-29 04:33N 37°49' W 122°20'0 0.0
2015-Jul-29 03:34N 37°49' W 122°20'0 0.0
2015-Jul-29 02:34N 37°49' W 122°20'2 1.9
2015-Jul-29 01:34N 37°48' W 122°18'1 0.8
2015-Jul-29 00:33N 37°48' W 122°19'1 1.4
2015-Jul-28 23:34N 37°48' W 122°21'0 0.0
2015-Jul-28 22:34N 37°48' W 122°21'1 0.7
2015-Jul-28 21:34N 37°49' W 122°20'1 0.7
2015-Jul-28 20:33N 37°48' W 122°21'3 2.7
2015-Jul-28 19:34N 37°48' W 122°17'0 0.5
2015-Jul-28 18:34N 37°48' W 122°18'2 1.9
2015-Jul-28 17:34N 37°49' W 122°19'0 0.1
2015-Jul-28 16:34N 37°49' W 122°19'0 0.0
2015-Jul-28 15:34N 37°49' W 122°19'0 0.0
2015-Jul-28 14:34N 37°49' W 122°19'0 0.0
2015-Jul-28 13:33N 37°49' W 122°19'0 0.0
2015-Jul-28 12:33N 37°49' W 122°19'0 0.0
2015-Jul-28 11:33N 37°49' W 122°19'0 0.0
2015-Jul-28 10:34N 37°49' W 122°19'0 0.0
2015-Jul-28 09:33N 37°49' W 122°19'0 0.0
2015-Jul-28 08:33N 37°49' W 122°19'0 0.0
2015-Jul-28 07:33N 37°49' W 122°19'2 2.4
2015-Jul-28 06:34N 37°50' W 122°22'9 9.4
2015-Jul-28 05:33N 37°58' W 122°26'9 8.9
2015-Jul-28 04:33N 38°03' W 122°16'0 0.4
2015-Jul-28 03:33N 38°03' W 122°16'2 1.7
2015-Jul-28 02:33N 38°03' W 122°18'3 3.4
2015-Jul-28 01:33N 38°02' W 122°22'8 7.5
2015-Jul-28 00:34N 37°55' W 122°25'7 7.1
2015-Jul-27 23:34N 37°49' W 122°21'2 2.0
2015-Jul-27 22:34N 37°49' W 122°19'0 0.0
2015-Jul-27 21:33N 37°49' W 122°19'0 0.0
2015-Jul-27 20:34N 37°49' W 122°19'0 0.0
2015-Jul-27 19:34N 37°49' W 122°19'0 0.0
2015-Jul-27 18:34N 37°49' W 122°19'0 0.0
2015-Jul-27 17:34N 37°49' W 122°19'0 0.0
2015-Jul-27 16:34N 37°49' W 122°19'0 0.0
2015-Jul-27 15:34N 37°49' W 122°19'2 1.6
2015-Jul-27 14:34N 37°48' W 122°20'2 1.7
2015-Jul-27 13:33N 37°48' W 122°18'1 0.6
2015-Jul-27 12:34N 37°48' W 122°18'0 0.0
2015-Jul-27 11:34N 37°48' W 122°18'2 2.0
2015-Jul-27 10:34N 37°48' W 122°21'2 1.8
2015-Jul-27 09:33N 37°49' W 122°19'0 0.0
2015-Jul-27 08:34N 37°49' W 122°19'0 0.0
2015-Jul-27 07:34N 37°49' W 122°19'3 3.2
2015-Jul-27 06:33N 37°48' W 122°23'5 5.1
2015-Jul-27 05:33N 37°49' W 122°29'5 5.4
2015-Jul-27 04:33N 37°55' W 122°27'10 8.8
2015-Jul-27 03:23N 38°03' W 122°20'5 1.3
2015-Jul-26 23:27N 38°04' W 122°13'8 9.2
2015-Jul-26 22:33N 38°01' W 122°23'7 6.7
2015-Jul-26 21:33N 37°54' W 122°23'0 0.0
2015-Jul-26 20:33N 37°54' W 122°23'0 0.0
2015-Jul-26 19:34N 37°54' W 122°23'0 0.0
2015-Jul-26 18:34N 37°54' W 122°23'0 0.0
2015-Jul-26 17:34N 37°54' W 122°23'0 0.0
2015-Jul-26 16:34N 37°54' W 122°23'0 0.0
2015-Jul-26 15:33N 37°54' W 122°23'0 0.0
2015-Jul-26 14:33N 37°54' W 122°23'0 0.0
2015-Jul-26 13:34N 37°54' W 122°23'0 0.0
2015-Jul-26 12:33N 37°54' W 122°23'0 0.0
2015-Jul-26 11:34N 37°54' W 122°23'0 0.0
2015-Jul-26 10:33N 37°54' W 122°23'0 0.0
2015-Jul-26 09:34N 37°54' W 122°23'0 0.0
2015-Jul-26 08:33N 37°54' W 122°23'0 0.0
2015-Jul-26 07:34N 37°54' W 122°23'0 0.0
2015-Jul-26 06:34N 37°54' W 122°23'0 0.0
2015-Jul-26 05:33N 37°54' W 122°23'1 1.1
2015-Jul-26 04:34N 37°55' W 122°22'1 1.2
2015-Jul-26 03:34N 37°55' W 122°23'0 0.0
2015-Jul-26 02:34N 37°55' W 122°23'1 1.1
2015-Jul-26 01:33N 37°54' W 122°22'2 1.8
2015-Jul-26 00:34N 37°55' W 122°24'1 0.9
2015-Jul-25 23:34N 37°54' W 122°25'3 2.6
2015-Jul-25 22:33N 37°55' W 122°22'1 1.1
2015-Jul-25 21:33N 37°55' W 122°23'0 0.0
2015-Jul-25 20:34N 37°55' W 122°23'2 1.7
2015-Jul-25 19:34N 37°56' W 122°25'2 2.2
2015-Jul-25 18:33N 37°53' W 122°25'3 3.0
2015-Jul-25 17:34N 37°55' W 122°22'3 2.8
2015-Jul-25 16:33N 37°55' W 122°25'6 5.5
2015-Jul-25 15:34N 37°50' W 122°22'2 1.9
2015-Jul-25 14:34N 37°48' W 122°21'1 0.7
2015-Jul-25 13:34N 37°49' W 122°20'0 0.4
2015-Jul-25 12:33N 37°49' W 122°19'0 0.1
2015-Jul-25 11:34N 37°49' W 122°19'1 0.7
2015-Jul-25 10:34N 37°49' W 122°19'0 0.0
2015-Jul-25 09:34N 37°49' W 122°19'0 0.0
2015-Jul-25 08:34N 37°49' W 122°19'0 0.0
2015-Jul-25 07:34N 37°49' W 122°19'0 0.0
2015-Jul-25 06:34N 37°49' W 122°19'0 0.0
2015-Jul-25 05:34N 37°49' W 122°19'0 0.0
2015-Jul-25 04:34N 37°49' W 122°19'0 0.0
2015-Jul-25 03:34N 37°49' W 122°19'0 0.0
2015-Jul-25 02:34N 37°49' W 122°19'0 0.0
2015-Jul-25 01:33N 37°49' W 122°19'0 0.3
2015-Jul-25 00:33N 37°49' W 122°19'1 1.3
2015-Jul-24 23:34N 37°49' W 122°20'1 1.5
2015-Jul-24 22:34N 37°49' W 122°19'0 0.0
2015-Jul-24 21:33N 37°49' W 122°19'0 0.0
2015-Jul-24 20:34N 37°49' W 122°19'0 0.0
2015-Jul-24 19:34N 37°49' W 122°19'0 0.0
2015-Jul-24 18:33N 37°49' W 122°19'0 0.0
2015-Jul-24 17:34N 37°49' W 122°19'2 1.5
2015-Jul-24 16:33N 37°49' W 122°20'0 0.4
2015-Jul-24 15:34N 37°49' W 122°20'1 0.6
2015-Jul-24 14:34N 37°48' W 122°21'1 1.3
2015-Jul-24 13:34N 37°49' W 122°19'3 2.7
2015-Jul-24 12:34N 37°48' W 122°22'2 1.6
2015-Jul-24 11:34N 37°48' W 122°20'0 0.0
2015-Jul-24 10:34N 37°48' W 122°20'1 1.1
2015-Jul-24 09:33N 37°49' W 122°19'0 0.4
2015-Jul-24 08:34N 37°49' W 122°19'0 0.0
2015-Jul-24 07:33N 37°49' W 122°19'0 0.0
2015-Jul-24 06:34N 37°49' W 122°19'0 0.0
2015-Jul-24 05:34N 37°49' W 122°19'0 0.0
2015-Jul-24 04:34N 37°49' W 122°19'0 0.0
2015-Jul-24 03:34N 37°49' W 122°19'0 0.0
2015-Jul-24 02:33N 37°49' W 122°19'0 0.0
2015-Jul-24 01:33N 37°49' W 122°19'0 0.0
2015-Jul-24 00:34N 37°49' W 122°19'2 2.0
2015-Jul-23 23:34N 37°48' W 122°18'2 2.0
2015-Jul-23 22:33N 37°49' W 122°19'0 0.0
2015-Jul-23 21:34N 37°49' W 122°19'0 0.1
2015-Jul-23 20:34N 37°49' W 122°19'2 1.9
2015-Jul-23 19:34N 37°48' W 122°18'0 0.5
2015-Jul-23 18:34N 37°48' W 122°17'0 0.0
2015-Jul-23 17:34N 37°48' W 122°17'0 0.0
2015-Jul-23 16:33N 37°48' W 122°17'0 0.2
2015-Jul-23 15:33N 37°48' W 122°17'4 1.9
2015-Jul-23 13:17N 37°47' W 122°23'1 1.3
2015-Jul-23 12:33N 37°48' W 122°23'4 3.8
2015-Jul-23 11:33N 37°49' W 122°19'0 0.0
2015-Jul-23 10:34N 37°49' W 122°19'0 0.0
2015-Jul-23 09:34N 37°49' W 122°19'0 0.0
2015-Jul-23 08:33N 37°49' W 122°19'0 0.0
2015-Jul-23 07:33N 37°49' W 122°19'0 0.0
2015-Jul-23 06:34N 37°49' W 122°19'0 0.0
2015-Jul-23 05:34N 37°49' W 122°19'0 0.0
2015-Jul-23 04:34N 37°49' W 122°19'0 0.0
2015-Jul-23 03:34N 37°49' W 122°19'7 6.9
2015-Jul-23 02:33N 37°54' W 122°25'9 8.7
2015-Jul-23 01:31N 38°02' W 122°21'10 3.1
2015-Jul-22 22:14N 38°02' W 122°08'5 6.9
2015-Jul-22 21:31N 38°04' W 122°14'9 9.5
2015-Jul-22 20:33N 38°00' W 122°25'9 9.5
2015-Jul-22 19:33N 37°51' W 122°24'5 4.8
2015-Jul-22 18:34N 37°48' W 122°29'1 0.9
2015-Jul-22 17:33N 37°49' W 122°29'8 8.0
2015-Jul-22 16:33N 37°49' W 122°19'0 0.0
2015-Jul-22 15:33N 37°49' W 122°19'0 0.0
2015-Jul-22 14:34N 37°49' W 122°19'0 0.3
2015-Jul-22 13:34N 37°49' W 122°19'2 1.7
2015-Jul-22 12:34N 37°48' W 122°21'2 2.0
2015-Jul-22 11:33N 37°49' W 122°19'0 0.0
2015-Jul-22 10:33N 37°49' W 122°19'2 2.5
2015-Jul-22 09:34N 37°50' W 122°22'6 6.1
2015-Jul-22 08:34N 37°55' W 122°25'5 4.7
2015-Jul-22 07:34N 37°51' W 122°25'4 4.2
2015-Jul-22 06:33N 37°48' W 122°29'2 1.8
2015-Jul-22 05:34N 37°49' W 122°27'7 6.9
2015-Jul-22 04:34N 37°49' W 122°19'0 0.0
2015-Jul-22 03:34N 37°49' W 122°19'1 1.1
2015-Jul-22 02:34N 37°49' W 122°20'1 1.1
2015-Jul-22 01:34N 37°49' W 122°19'0 0.0
2015-Jul-22 00:34N 37°49' W 122°19'1 1.2
2015-Jul-21 23:34N 37°49' W 122°20'1 1.2
2015-Jul-21 22:33N 37°49' W 122°19'0 0.1
2015-Jul-21 21:33N 37°49' W 122°19'0 0.0
2015-Jul-21 20:34N 37°49' W 122°19'0 0.0
2015-Jul-21 19:34N 37°49' W 122°19'0 0.0
2015-Jul-21 18:33N 37°49' W 122°19'0 0.0
2015-Jul-21 17:33N 37°49' W 122°19'0 0.0
2015-Jul-21 16:33N 37°49' W 122°19'0 0.0
2015-Jul-21 15:34N 37°49' W 122°19'2 1.9
2015-Jul-21 14:34N 37°48' W 122°21'3 2.6
2015-Jul-21 13:34N 37°48' W 122°24'1 1.0
2015-Jul-21 12:34N 37°49' W 122°25'5 4.9
2015-Jul-21 11:33N 37°49' W 122°19'0 0.0
2015-Jul-21 10:33N 37°49' W 122°19'0 0.0
2015-Jul-21 09:33N 37°49' W 122°19'0 0.0
2015-Jul-21 08:33N 37°49' W 122°19'0 0.0
2015-Jul-21 07:33N 37°49' W 122°19'0 0.0
2015-Jul-21 06:34N 37°49' W 122°19'0 0.0
2015-Jul-21 05:34N 37°49' W 122°19'  
Track history (hours):
 
Tides and Currents Weather Stations Pressure Air Temp Water Temp Dewpoint Dewpoint Depression Visibility Wind Speed Wind Dir Waves Ship Positions

Sandra Hugh

Owner: Sortwell Inc., DBA AmNav Maritime Services, Oakland, CA. More information available from US FCC via Universal Licensing System and Coast Guard Vessel Documentation Center.

Last reported at 2015-Jul-31 04:34 UTC. Time now 2015-Jul-31 05:06 UTC.
Position N 37°49' W 122°19'.

Length 24 m; draft 4.9 m.

Type: Tug. MMSI: 367305920.

Date/timePositionNaut miles runAvg speedWind from/ knotsBaromVisibWave heightAir tempDewpointWater temp
2015-Jul-31 04:34N 37°49' W 122°19'0 0.0
2015-Jul-31 03:34N 37°49' W 122°19'0 0.0
2015-Jul-31 02:34N 37°49' W 122°19'0 0.1
2015-Jul-31 01:34N 37°49' W 122°19'0 0.0
2015-Jul-31 00:33N 37°49' W 122°19'0 0.0
2015-Jul-30 23:34N 37°49' W 122°19'0 0.0
2015-Jul-30 22:34N 37°49' W 122°19'0 0.0
2015-Jul-30 21:34N 37°49' W 122°19'0 0.0
2015-Jul-30 20:34N 37°49' W 122°19'0 0.0
2015-Jul-30 19:34N 37°49' W 122°19'2 1.7
2015-Jul-30 18:34N 37°48' W 122°20'0 0.2
2015-Jul-30 17:34N 37°49' W 122°20'0 0.2
2015-Jul-30 16:34N 37°49' W 122°20'0 0.0
2015-Jul-30 15:34N 37°49' W 122°20'0 0.4
2015-Jul-30 14:34N 37°49' W 122°20'0 0.4
2015-Jul-30 13:34N 37°49' W 122°19'3 2.7
2015-Jul-30 12:34N 37°48' W 122°22'3 3.1
2015-Jul-30 11:34N 37°49' W 122°19'0 0.0
2015-Jul-30 10:34N 37°49' W 122°19'0 0.0
2015-Jul-30 09:34N 37°49' W 122°19'0 0.0
2015-Jul-30 08:34N 37°49' W 122°19'0 0.0
2015-Jul-30 07:34N 37°49' W 122°19'0 0.0
2015-Jul-30 06:34N 37°49' W 122°19'0 0.0
2015-Jul-30 05:34N 37°49' W 122°19'0 0.0
2015-Jul-30 04:34N 37°49' W 122°19'0 0.0
2015-Jul-30 03:33N 37°49' W 122°19'0 0.0
2015-Jul-30 02:34N 37°49' W 122°19'0 0.3
2015-Jul-30 01:33N 37°49' W 122°19'0 0.0
2015-Jul-30 00:34N 37°49' W 122°19'1 0.6
2015-Jul-29 23:34N 37°49' W 122°20'1 1.0
2015-Jul-29 22:34N 37°48' W 122°21'2 1.9
2015-Jul-29 21:34N 37°49' W 122°19'0 0.0
2015-Jul-29 20:34N 37°49' W 122°19'0 0.0
2015-Jul-29 19:34N 37°49' W 122°19'0 0.0
2015-Jul-29 18:34N 37°49' W 122°19'0 0.0
2015-Jul-29 17:34N 37°49' W 122°19'0 0.0
2015-Jul-29 16:34N 37°49' W 122°19'0 0.0
2015-Jul-29 15:34N 37°49' W 122°19'1 0.6
2015-Jul-29 14:34N 37°49' W 122°19'0 0.3
2015-Jul-29 13:34N 37°49' W 122°19'1 0.6
2015-Jul-29 12:34N 37°49' W 122°20'1 0.8
2015-Jul-29 11:34N 37°48' W 122°21'0 0.0
2015-Jul-29 10:34N 37°48' W 122°21'2 2.0
2015-Jul-29 09:34N 37°48' W 122°18'0 0.1
2015-Jul-29 08:34N 37°48' W 122°18'2 1.8
2015-Jul-29 07:34N 37°49' W 122°20'0 0.0
2015-Jul-29 06:34N 37°49' W 122°20'0 0.0
2015-Jul-29 05:34N 37°49' W 122°20'0 0.0
2015-Jul-29 04:33N 37°49' W 122°20'0 0.0
2015-Jul-29 03:34N 37°49' W 122°20'0 0.0
2015-Jul-29 02:34N 37°49' W 122°20'2 1.9
2015-Jul-29 01:34N 37°48' W 122°18'1 0.8
2015-Jul-29 00:33N 37°48' W 122°19'1 1.4
2015-Jul-28 23:34N 37°48' W 122°21'0 0.0
2015-Jul-28 22:34N 37°48' W 122°21'1 0.7
2015-Jul-28 21:34N 37°49' W 122°20'1 0.7
2015-Jul-28 20:33N 37°48' W 122°21'3 2.7
2015-Jul-28 19:34N 37°48' W 122°17'0 0.5
2015-Jul-28 18:34N 37°48' W 122°18'2 1.9
2015-Jul-28 17:34N 37°49' W 122°19'0 0.1
2015-Jul-28 16:34N 37°49' W 122°19'0 0.0
2015-Jul-28 15:34N 37°49' W 122°19'0 0.0
2015-Jul-28 14:34N 37°49' W 122°19'0 0.0
2015-Jul-28 13:33N 37°49' W 122°19'0 0.0
2015-Jul-28 12:33N 37°49' W 122°19'0 0.0
2015-Jul-28 11:33N 37°49' W 122°19'0 0.0
2015-Jul-28 10:34N 37°49' W 122°19'0 0.0
2015-Jul-28 09:33N 37°49' W 122°19'0 0.0
2015-Jul-28 08:33N 37°49' W 122°19'0 0.0
2015-Jul-28 07:33N 37°49' W 122°19'2 2.4
2015-Jul-28 06:34N 37°50' W 122°22'9 9.4
2015-Jul-28 05:33N 37°58' W 122°26'9 8.9
2015-Jul-28 04:33N 38°03' W 122°16'0 0.4
2015-Jul-28 03:33N 38°03' W 122°16'2 1.7
2015-Jul-28 02:33N 38°03' W 122°18'3 3.4
2015-Jul-28 01:33N 38°02' W 122°22'8 7.5
2015-Jul-28 00:34N 37°55' W 122°25'7 7.1
2015-Jul-27 23:34N 37°49' W 122°21'2 2.0
2015-Jul-27 22:34N 37°49' W 122°19'0 0.0
2015-Jul-27 21:33N 37°49' W 122°19'0 0.0
2015-Jul-27 20:34N 37°49' W 122°19'0 0.0
2015-Jul-27 19:34N 37°49' W 122°19'0 0.0
2015-Jul-27 18:34N 37°49' W 122°19'0 0.0
2015-Jul-27 17:34N 37°49' W 122°19'0 0.0
2015-Jul-27 16:34N 37°49' W 122°19'0 0.0
2015-Jul-27 15:34N 37°49' W 122°19'2 1.6
2015-Jul-27 14:34N 37°48' W 122°20'2 1.7
2015-Jul-27 13:33N 37°48' W 122°18'1 0.6
2015-Jul-27 12:34N 37°48' W 122°18'0 0.0
2015-Jul-27 11:34N 37°48' W 122°18'2 2.0
2015-Jul-27 10:34N 37°48' W 122°21'2 1.8
2015-Jul-27 09:33N 37°49' W 122°19'0 0.0
2015-Jul-27 08:34N 37°49' W 122°19'0 0.0
2015-Jul-27 07:34N 37°49' W 122°19'3 3.2
2015-Jul-27 06:33N 37°48' W 122°23'5 5.1
2015-Jul-27 05:33N 37°49' W 122°29'5 5.4
2015-Jul-27 04:33N 37°55' W 122°27'10 8.8
2015-Jul-27 03:23N 38°03' W 122°20'5 1.3
2015-Jul-26 23:27N 38°04' W 122°13'8 9.2
2015-Jul-26 22:33N 38°01' W 122°23'7 6.7
2015-Jul-26 21:33N 37°54' W 122°23'0 0.0
2015-Jul-26 20:33N 37°54' W 122°23'0 0.0
2015-Jul-26 19:34N 37°54' W 122°23'0 0.0
2015-Jul-26 18:34N 37°54' W 122°23'0 0.0
2015-Jul-26 17:34N 37°54' W 122°23'0 0.0
2015-Jul-26 16:34N 37°54' W 122°23'0 0.0
2015-Jul-26 15:33N 37°54' W 122°23'0 0.0
2015-Jul-26 14:33N 37°54' W 122°23'0 0.0
2015-Jul-26 13:34N 37°54' W 122°23'0 0.0
2015-Jul-26 12:33N 37°54' W 122°23'0 0.0
2015-Jul-26 11:34N 37°54' W 122°23'0 0.0
2015-Jul-26 10:33N 37°54' W 122°23'0 0.0
2015-Jul-26 09:34N 37°54' W 122°23'0 0.0
2015-Jul-26 08:33N 37°54' W 122°23'0 0.0
2015-Jul-26 07:34N 37°54' W 122°23'0 0.0
2015-Jul-26 06:34N 37°54' W 122°23'0 0.0
2015-Jul-26 05:33N 37°54' W 122°23'1 1.1
2015-Jul-26 04:34N 37°55' W 122°22'1 1.2
2015-Jul-26 03:34N 37°55' W 122°23'0 0.0
2015-Jul-26 02:34N 37°55' W 122°23'1 1.1
2015-Jul-26 01:33N 37°54' W 122°22'2 1.8
2015-Jul-26 00:34N 37°55' W 122°24'1 0.9
2015-Jul-25 23:34N 37°54' W 122°25'3 2.6
2015-Jul-25 22:33N 37°55' W 122°22'1 1.1
2015-Jul-25 21:33N 37°55' W 122°23'0 0.0
2015-Jul-25 20:34N 37°55' W 122°23'2 1.7
2015-Jul-25 19:34N 37°56' W 122°25'2 2.2
2015-Jul-25 18:33N 37°53' W 122°25'3 3.0
2015-Jul-25 17:34N 37°55' W 122°22'3 2.8
2015-Jul-25 16:33N 37°55' W 122°25'6 5.5
2015-Jul-25 15:34N 37°50' W 122°22'2 1.9
2015-Jul-25 14:34N 37°48' W 122°21'1 0.7
2015-Jul-25 13:34N 37°49' W 122°20'0 0.4
2015-Jul-25 12:33N 37°49' W 122°19'0 0.1
2015-Jul-25 11:34N 37°49' W 122°19'1 0.7
2015-Jul-25 10:34N 37°49' W 122°19'0 0.0
2015-Jul-25 09:34N 37°49' W 122°19'0 0.0
2015-Jul-25 08:34N 37°49' W 122°19'0 0.0
2015-Jul-25 07:34N 37°49' W 122°19'0 0.0
2015-Jul-25 06:34N 37°49' W 122°19'0 0.0
2015-Jul-25 05:34N 37°49' W 122°19'0 0.0
2015-Jul-25 04:34N 37°49' W 122°19'0 0.0
2015-Jul-25 03:34N 37°49' W 122°19'0 0.0
2015-Jul-25 02:34N 37°49' W 122°19'0 0.0
2015-Jul-25 01:33N 37°49' W 122°19'0 0.3
2015-Jul-25 00:33N 37°49' W 122°19'1 1.3
2015-Jul-24 23:34N 37°49' W 122°20'1 1.5
2015-Jul-24 22:34N 37°49' W 122°19'0 0.0
2015-Jul-24 21:33N 37°49' W 122°19'0 0.0
2015-Jul-24 20:34N 37°49' W 122°19'0 0.0
2015-Jul-24 19:34N 37°49' W 122°19'0 0.0
2015-Jul-24 18:33N 37°49' W 122°19'0 0.0
2015-Jul-24 17:34N 37°49' W 122°19'2 1.5
2015-Jul-24 16:33N 37°49' W 122°20'0 0.4
2015-Jul-24 15:34N 37°49' W 122°20'1 0.6
2015-Jul-24 14:34N 37°48' W 122°21'1 1.3
2015-Jul-24 13:34N 37°49' W 122°19'3 2.7
2015-Jul-24 12:34N 37°48' W 122°22'2 1.6
2015-Jul-24 11:34N 37°48' W 122°20'0 0.0
2015-Jul-24 10:34N 37°48' W 122°20'1 1.1
2015-Jul-24 09:33N 37°49' W 122°19'0 0.4
2015-Jul-24 08:34N 37°49' W 122°19'0 0.0
2015-Jul-24 07:33N 37°49' W 122°19'0 0.0
2015-Jul-24 06:34N 37°49' W 122°19'0 0.0
2015-Jul-24 05:34N 37°49' W 122°19'0 0.0
2015-Jul-24 04:34N 37°49' W 122°19'0 0.0
2015-Jul-24 03:34N 37°49' W 122°19'0 0.0
2015-Jul-24 02:33N 37°49' W 122°19'0 0.0
2015-Jul-24 01:33N 37°49' W 122°19'0 0.0
2015-Jul-24 00:34N 37°49' W 122°19'2 2.0
2015-Jul-23 23:34N 37°48' W 122°18'2 2.0
2015-Jul-23 22:33N 37°49' W 122°19'0 0.0
2015-Jul-23 21:34N 37°49' W 122°19'0 0.1
2015-Jul-23 20:34N 37°49' W 122°19'2 1.9
2015-Jul-23 19:34N 37°48' W 122°18'0 0.5
2015-Jul-23 18:34N 37°48' W 122°17'0 0.0
2015-Jul-23 17:34N 37°48' W 122°17'0 0.0
2015-Jul-23 16:33N 37°48' W 122°17'0 0.2
2015-Jul-23 15:33N 37°48' W 122°17'4 1.9
2015-Jul-23 13:17N 37°47' W 122°23'1 1.3
2015-Jul-23 12:33N 37°48' W 122°23'4 3.8
2015-Jul-23 11:33N 37°49' W 122°19'0 0.0
2015-Jul-23 10:34N 37°49' W 122°19'0 0.0
2015-Jul-23 09:34N 37°49' W 122°19'0 0.0
2015-Jul-23 08:33N 37°49' W 122°19'0 0.0
2015-Jul-23 07:33N 37°49' W 122°19'0 0.0
2015-Jul-23 06:34N 37°49' W 122°19'0 0.0
2015-Jul-23 05:34N 37°49' W 122°19'0 0.0
2015-Jul-23 04:34N 37°49' W 122°19'0 0.0
2015-Jul-23 03:34N 37°49' W 122°19'7 6.9
2015-Jul-23 02:33N 37°54' W 122°25'9 8.7
2015-Jul-23 01:31N 38°02' W 122°21'10 3.1
2015-Jul-22 22:14N 38°02' W 122°08'5 6.9
2015-Jul-22 21:31N 38°04' W 122°14'9 9.5
2015-Jul-22 20:33N 38°00' W 122°25'9 9.5
2015-Jul-22 19:33N 37°51' W 122°24'5 4.8
2015-Jul-22 18:34N 37°48' W 122°29'1 0.9
2015-Jul-22 17:33N 37°49' W 122°29'8 8.0
2015-Jul-22 16:33N 37°49' W 122°19'0 0.0
2015-Jul-22 15:33N 37°49' W 122°19'0 0.0
2015-Jul-22 14:34N 37°49' W 122°19'0 0.3
2015-Jul-22 13:34N 37°49' W 122°19'2 1.7
2015-Jul-22 12:34N 37°48' W 122°21'2 2.0
2015-Jul-22 11:33N 37°49' W 122°19'0 0.0
2015-Jul-22 10:33N 37°49' W 122°19'2 2.5
2015-Jul-22 09:34N 37°50' W 122°22'6 6.1
2015-Jul-22 08:34N 37°55' W 122°25'5 4.7
2015-Jul-22 07:34N 37°51' W 122°25'4 4.2
2015-Jul-22 06:33N 37°48' W 122°29'2 1.8
2015-Jul-22 05:34N 37°49' W 122°27'7 6.9
2015-Jul-22 04:34N 37°49' W 122°19'0 0.0
2015-Jul-22 03:34N 37°49' W 122°19'1 1.1
2015-Jul-22 02:34N 37°49' W 122°20'1 1.1
2015-Jul-22 01:34N 37°49' W 122°19'0 0.0
2015-Jul-22 00:34N 37°49' W 122°19'1 1.2
2015-Jul-21 23:34N 37°49' W 122°20'1 1.2
2015-Jul-21 22:33N 37°49' W 122°19'0 0.1
2015-Jul-21 21:33N 37°49' W 122°19'0 0.0
2015-Jul-21 20:34N 37°49' W 122°19'0 0.0
2015-Jul-21 19:34N 37°49' W 122°19'0 0.0
2015-Jul-21 18:33N 37°49' W 122°19'0 0.0
2015-Jul-21 17:33N 37°49' W 122°19'0 0.0
2015-Jul-21 16:33N 37°49' W 122°19'0 0.0
2015-Jul-21 15:34N 37°49' W 122°19'2 1.9
2015-Jul-21 14:34N 37°48' W 122°21'3 2.6
2015-Jul-21 13:34N 37°48' W 122°24'1 1.0
2015-Jul-21 12:34N 37°49' W 122°25'5 4.9
2015-Jul-21 11:33N 37°49' W 122°19'0 0.0
2015-Jul-21 10:33N 37°49' W 122°19'0 0.0
2015-Jul-21 09:33N 37°49' W 122°19'0 0.0
2015-Jul-21 08:33N 37°49' W 122°19'0 0.0
2015-Jul-21 07:33N 37°49' W 122°19'0 0.0
2015-Jul-21 06:34N 37°49' W 122°19'0 0.0
2015-Jul-21 05:34N 37°49' W 122°19'  

Dump ship's entire track history